Impacts TAF Board INFO
FOR SITUATIONAL AWARENESS. NOT TO BE USED FOR FLIGHT PLANNING PURPOSES.
IDs:

KFLL - Ft Lauderdale-Hollyw, FL, US

Issued at 2337 UTC 17 Aug 2018
Updated at 0128 UTC 18 Aug 2018
Potential Impact None Slight Moderate High
Time<<19/02Z 19/03Z 19/04Z 19/05Z 19/06Z 19/07Z 19/08Z 19/09Z 19/10Z 19/11Z 19/12Z 19/13Z 19/14Z
Type PRVL PRVL PRVL PRVL
VIS >6 >6 >6 >6
CIG -- -- -- --
Cover SCT SCT SCT SCT
FltCat VFR VFR VFR VFR
WX VCSH VCSH VCSH VCSH
WDir 100 100 100 100
WSpd 10 10 10 10
WGst -- -- -- --

Raw TAF
KFLL 172337Z 1800/1906 09010KT P6SM VCSH SCT025 SCT050
  FM181100 10013KT P6SM VCSH SCT025 SCT040
  FM181600 11013KT P6SM FEW030
  FM182300 10010KT P6SM VCSH SCT025


METAR Board
Radar Display
Forecast Discussion

FOR SITUATIONAL AWARENESS. NOT TO BE USED FOR FLIGHT PLANNING PURPOSES.